Barnt Green, United Kingdom
Current Conditions -  °F | °C
As of 1:20 AM on Wednesday 22 Oct 2014 (Local Time) from EGBB Reporting Station
Clear Clear  
Wind Chill: 39°   Ceiling: Unl
Heat Index: 43°   Visibility: 6mi
Dew Point: 34°   Wind: 6mph
Humidity: 70%   Direction: 200°SSW
Pressure: 30.15"   Gusts: NA
Location:  52.36°N, 2.01°W
Report Text: EGBB 220020Z 20005KT 160V260 CAVOK 06/01 Q1021
Loading
Personal Weather Stations






























Interactive Weather Map
Tropical Storm Tracking
New forecast layout! Learn more

10-Day Weather Forecast

Advertisements
Track Severe Weather on mobile